sensor_id;sensor_type;location;lat;lon;timestamp;temperature;humidity
16879;DHT22;8556;52.218;9.884;2022-11-06T00:02:24;8.50;1.00
16879;DHT22;8556;52.218;9.884;2022-11-06T00:04:50;8.50;1.00
16879;DHT22;8556;52.218;9.884;2022-11-06T00:07:19;8.50;1.00
16879;DHT22;8556;52.218;9.884;2022-11-06T00:09:44;8.50;1.00
16879;DHT22;8556;52.218;9.884;2022-11-06T00:12:11;8.50;1.00
16879;DHT22;8556;52.218;9.884;2022-11-06T00:14:38;8.50;1.00
16879;DHT22;8556;52.218;9.884;2022-11-06T00:17:06;8.60;1.00
16879;DHT22;8556;52.218;9.884;2022-11-06T00:19:33;8.60;1.00
16879;DHT22;8556;52.218;9.884;2022-11-06T00:22:00;8.80;1.00
16879;DHT22;8556;52.218;9.884;2022-11-06T00:24:28;8.70;1.00
16879;DHT22;8556;52.218;9.884;2022-11-06T00:26:55;8.70;1.00
16879;DHT22;8556;52.218;9.884;2022-11-06T00:29:22;8.80;1.00
16879;DHT22;8556;52.218;9.884;2022-11-06T00:31:49;8.80;1.00
16879;DHT22;8556;52.218;9.884;2022-11-06T00:34:16;8.90;1.00
16879;DHT22;8556;52.218;9.884;2022-11-06T00:36:42;8.80;1.00
16879;DHT22;8556;52.218;9.884;2022-11-06T00:39:10;8.90;1.00
16879;DHT22;8556;52.218;9.884;2022-11-06T00:41:38;8.80;1.00
16879;DHT22;8556;52.218;9.884;2022-11-06T00:44:05;9.00;1.00
16879;DHT22;8556;52.218;9.884;2022-11-06T00:46:32;8.90;1.00
16879;DHT22;8556;52.218;9.884;2022-11-06T00:48:59;8.80;1.00
16879;DHT22;8556;52.218;9.884;2022-11-06T00:51:28;8.80;1.00
16879;DHT22;8556;52.218;9.884;2022-11-06T00:53:56;8.80;1.00
16879;DHT22;8556;52.218;9.884;2022-11-06T00:56:24;8.90;1.00
16879;DHT22;8556;52.218;9.884;2022-11-06T00:58:53;8.80;1.00
16879;DHT22;8556;52.218;9.884;2022-11-06T01:01:21;8.80;1.00
16879;DHT22;8556;52.218;9.884;2022-11-06T01:03:51;8.90;1.00
16879;DHT22;8556;52.218;9.884;2022-11-06T01:06:20;8.90;1.00
16879;DHT22;8556;52.218;9.884;2022-11-06T01:08:48;8.90;1.00
16879;DHT22;8556;52.218;9.884;2022-11-06T01:11:17;9.00;1.00
16879;DHT22;8556;52.218;9.884;2022-11-06T01:13:55;8.90;1.00
16879;DHT22;8556;52.218;9.884;2022-11-06T01:16:23;9.00;99.90
16879;DHT22;8556;52.218;9.884;2022-11-06T01:18:51;9.10;99.90
16879;DHT22;8556;52.218;9.884;2022-11-06T01:21:21;9.00;99.90
16879;DHT22;8556;52.218;9.884;2022-11-06T01:23:52;9.10;1.00
16879;DHT22;8556;52.218;9.884;2022-11-06T01:26:19;9.00;48.80
16879;DHT22;8556;52.218;9.884;2022-11-06T01:28:46;9.00;95.60
16879;DHT22;8556;52.218;9.884;2022-11-06T01:31:16;9.00;99.90
16879;DHT22;8556;52.218;9.884;2022-11-06T01:33:43;8.90;99.90
16879;DHT22;8556;52.218;9.884;2022-11-06T01:36:11;8.90;1.00
16879;DHT22;8556;52.218;9.884;2022-11-06T01:38:39;8.80;1.00
16879;DHT22;8556;52.218;9.884;2022-11-06T01:41:06;8.90;1.00
16879;DHT22;8556;52.218;9.884;2022-11-06T01:43:45;8.80;1.00
16879;DHT22;8556;52.218;9.884;2022-11-06T01:46:14;8.90;1.00
16879;DHT22;8556;52.218;9.884;2022-11-06T01:48:43;8.90;1.00
16879;DHT22;8556;52.218;9.884;2022-11-06T01:51:12;8.90;1.00
16879;DHT22;8556;52.218;9.884;2022-11-06T01:53:39;8.80;1.00
16879;DHT22;8556;52.218;9.884;2022-11-06T01:56:09;8.80;1.00
16879;DHT22;8556;52.218;9.884;2022-11-06T01:58:40;8.80;1.00
16879;DHT22;8556;52.218;9.884;2022-11-06T02:01:07;8.80;1.00
16879;DHT22;8556;52.218;9.884;2022-11-06T02:03:36;8.80;1.00
16879;DHT22;8556;52.218;9.884;2022-11-06T02:06:04;8.80;1.00
16879;DHT22;8556;52.218;9.884;2022-11-06T02:08:33;8.80;1.00
16879;DHT22;8556;52.218;9.884;2022-11-06T02:11:00;8.70;1.00
16879;DHT22;8556;52.218;9.884;2022-11-06T02:13:35;8.70;1.00
16879;DHT22;8556;52.218;9.884;2022-11-06T02:16:07;8.70;1.00
16879;DHT22;8556;52.218;9.884;2022-11-06T02:18:50;8.70;1.00
16879;DHT22;8556;52.218;9.884;2022-11-06T02:21:30;8.60;1.00
16879;DHT22;8556;52.218;9.884;2022-11-06T02:24:12;8.70;1.00
16879;DHT22;8556;52.218;9.884;2022-11-06T02:26:55;8.70;1.00
16879;DHT22;8556;52.218;9.884;2022-11-06T02:29:30;8.70;1.00
16879;DHT22;8556;52.218;9.884;2022-11-06T02:31:59;8.60;1.00
16879;DHT22;8556;52.218;9.884;2022-11-06T02:34:29;8.60;1.00
16879;DHT22;8556;52.218;9.884;2022-11-06T02:37:00;8.70;1.00
16879;DHT22;8556;52.218;9.884;2022-11-06T02:39:30;8.60;1.00
16879;DHT22;8556;52.218;9.884;2022-11-06T02:42:02;8.80;1.00
16879;DHT22;8556;52.218;9.884;2022-11-06T02:44:31;8.70;1.00
16879;DHT22;8556;52.218;9.884;2022-11-06T02:47:04;8.60;1.00
16879;DHT22;8556;52.218;9.884;2022-11-06T02:49:37;8.60;1.00
16879;DHT22;8556;52.218;9.884;2022-11-06T02:52:06;8.60;1.00
16879;DHT22;8556;52.218;9.884;2022-11-06T02:54:38;8.70;1.00
16879;DHT22;8556;52.218;9.884;2022-11-06T02:57:09;8.70;1.00
16879;DHT22;8556;52.218;9.884;2022-11-06T02:59:43;8.60;1.00
16879;DHT22;8556;52.218;9.884;2022-11-06T03:02:15;8.60;1.00
16879;DHT22;8556;52.218;9.884;2022-11-06T03:04:45;8.60;1.00
16879;DHT22;8556;52.218;9.884;2022-11-06T03:07:18;8.80;1.00
16879;DHT22;8556;52.218;9.884;2022-11-06T03:09:46;8.70;1.00
16879;DHT22;8556;52.218;9.884;2022-11-06T03:12:19;8.70;1.00
16879;DHT22;8556;52.218;9.884;2022-11-06T03:14:53;8.60;1.00
16879;DHT22;8556;52.218;9.884;2022-11-06T03:17:26;8.60;1.00
16879;DHT22;8556;52.218;9.884;2022-11-06T03:19:59;8.60;1.00
16879;DHT22;8556;52.218;9.884;2022-11-06T03:22:30;8.60;1.00
16879;DHT22;8556;52.218;9.884;2022-11-06T03:25:04;8.50;1.00
16879;DHT22;8556;52.218;9.884;2022-11-06T03:27:37;8.40;1.00
16879;DHT22;8556;52.218;9.884;2022-11-06T03:30:07;8.30;1.00
16879;DHT22;8556;52.218;9.884;2022-11-06T03:32:36;8.30;1.00
16879;DHT22;8556;52.218;9.884;2022-11-06T03:35:07;8.30;1.00
16879;DHT22;8556;52.218;9.884;2022-11-06T03:37:40;8.20;1.00
16879;DHT22;8556;52.218;9.884;2022-11-06T03:40:12;8.20;1.00
16879;DHT22;8556;52.218;9.884;2022-11-06T03:42:44;8.10;1.00
16879;DHT22;8556;52.218;9.884;2022-11-06T03:45:15;8.20;1.00
16879;DHT22;8556;52.218;9.884;2022-11-06T03:47:46;8.10;16.40
16879;DHT22;8556;52.218;9.884;2022-11-06T03:50:16;7.90;52.50
16879;DHT22;8556;52.218;9.884;2022-11-06T03:52:50;7.90;99.90
16879;DHT22;8556;52.218;9.884;2022-11-06T03:55:21;7.90;99.90
16879;DHT22;8556;52.218;9.884;2022-11-06T03:57:54;7.90;99.90
16879;DHT22;8556;52.218;9.884;2022-11-06T04:00:22;7.80;99.90
16879;DHT22;8556;52.218;9.884;2022-11-06T04:02:52;7.90;99.90
16879;DHT22;8556;52.218;9.884;2022-11-06T04:05:31;7.80;99.90
16879;DHT22;8556;52.218;9.884;2022-11-06T04:08:00;7.80;99.90
16879;DHT22;8556;52.218;9.884;2022-11-06T04:10:47;7.70;99.90
16879;DHT22;8556;52.218;9.884;2022-11-06T04:13:35;7.60;99.90
16879;DHT22;8556;52.218;9.884;2022-11-06T04:16:21;7.40;99.90
16879;DHT22;8556;52.218;9.884;2022-11-06T04:18:49;7.50;99.90
16879;DHT22;8556;52.218;9.884;2022-11-06T04:21:23;7.60;99.90
16879;DHT22;8556;52.218;9.884;2022-11-06T04:24:03;7.60;99.90
16879;DHT22;8556;52.218;9.884;2022-11-06T04:26:56;7.50;99.90
16879;DHT22;8556;52.218;9.884;2022-11-06T04:29:41;7.50;99.90
16879;DHT22;8556;52.218;9.884;2022-11-06T04:32:13;7.50;99.90
16879;DHT22;8556;52.218;9.884;2022-11-06T04:34:44;7.50;99.90
16879;DHT22;8556;52.218;9.884;2022-11-06T04:37:20;7.60;99.90
16879;DHT22;8556;52.218;9.884;2022-11-06T04:39:54;7.50;99.90
16879;DHT22;8556;52.218;9.884;2022-11-06T04:42:27;7.50;99.90
16879;DHT22;8556;52.218;9.884;2022-11-06T04:44:59;7.60;99.90
16879;DHT22;8556;52.218;9.884;2022-11-06T04:47:27;7.60;99.90
16879;DHT22;8556;52.218;9.884;2022-11-06T04:49:56;7.70;99.90
16879;DHT22;8556;52.218;9.884;2022-11-06T04:52:27;7.60;99.90
16879;DHT22;8556;52.218;9.884;2022-11-06T04:54:55;7.50;99.90
16879;DHT22;8556;52.218;9.884;2022-11-06T04:57:23;7.50;99.90
16879;DHT22;8556;52.218;9.884;2022-11-06T04:59:50;7.70;99.90
16879;DHT22;8556;52.218;9.884;2022-11-06T05:02:18;7.70;99.90
16879;DHT22;8556;52.218;9.884;2022-11-06T05:04:45;7.90;99.90
16879;DHT22;8556;52.218;9.884;2022-11-06T05:07:13;8.00;99.90
16879;DHT22;8556;52.218;9.884;2022-11-06T05:09:40;8.00;99.90
16879;DHT22;8556;52.218;9.884;2022-11-06T05:12:07;8.20;99.90
16879;DHT22;8556;52.218;9.884;2022-11-06T05:14:34;8.20;99.90
16879;DHT22;8556;52.218;9.884;2022-11-06T05:17:00;8.30;99.90
16879;DHT22;8556;52.218;9.884;2022-11-06T05:19:29;8.40;81.00
16879;DHT22;8556;52.218;9.884;2022-11-06T05:21:55;8.40;98.50
16879;DHT22;8556;52.218;9.884;2022-11-06T05:24:40;8.30;99.90
16879;DHT22;8556;52.218;9.884;2022-11-06T05:27:07;8.50;99.90
16879;DHT22;8556;52.218;9.884;2022-11-06T05:29:34;8.50;44.70
16879;DHT22;8556;52.218;9.884;2022-11-06T05:32:01;8.50;1.00
16879;DHT22;8556;52.218;9.884;2022-11-06T05:34:29;8.50;27.40
16879;DHT22;8556;52.218;9.884;2022-11-06T05:36:57;8.50;1.00
16879;DHT22;8556;52.218;9.884;2022-11-06T05:39:24;8.50;1.00
16879;DHT22;8556;52.218;9.884;2022-11-06T05:41:51;8.50;1.00
16879;DHT22;8556;52.218;9.884;2022-11-06T05:44:18;8.50;1.00
16879;DHT22;8556;52.218;9.884;2022-11-06T05:46:44;8.60;1.00
16879;DHT22;8556;52.218;9.884;2022-11-06T05:49:11;8.50;1.00
16879;DHT22;8556;52.218;9.884;2022-11-06T05:51:39;8.50;1.00
16879;DHT22;8556;52.218;9.884;2022-11-06T05:54:06;8.50;1.00
16879;DHT22;8556;52.218;9.884;2022-11-06T05:56:33;8.50;1.00
16879;DHT22;8556;52.218;9.884;2022-11-06T05:59:00;8.60;1.00
16879;DHT22;8556;52.218;9.884;2022-11-06T06:01:27;8.60;1.00
16879;DHT22;8556;52.218;9.884;2022-11-06T06:03:53;8.40;1.00
16879;DHT22;8556;52.218;9.884;2022-11-06T06:06:20;8.50;1.00
16879;DHT22;8556;52.218;9.884;2022-11-06T06:08:48;8.50;1.00
16879;DHT22;8556;52.218;9.884;2022-11-06T06:11:15;8.50;1.00
16879;DHT22;8556;52.218;9.884;2022-11-06T06:13:42;8.50;1.00
16879;DHT22;8556;52.218;9.884;2022-11-06T06:16:09;8.50;5.00
16879;DHT22;8556;52.218;9.884;2022-11-06T06:18:36;8.40;67.30
16879;DHT22;8556;52.218;9.884;2022-11-06T06:21:03;8.40;99.90
16879;DHT22;8556;52.218;9.884;2022-11-06T06:23:29;8.40;99.90
16879;DHT22;8556;52.218;9.884;2022-11-06T06:25:58;8.50;98.90
16879;DHT22;8556;52.218;9.884;2022-11-06T06:28:24;8.50;99.90
16879;DHT22;8556;52.218;9.884;2022-11-06T06:30:51;8.50;99.90
16879;DHT22;8556;52.218;9.884;2022-11-06T06:33:18;8.40;99.90
16879;DHT22;8556;52.218;9.884;2022-11-06T06:35:45;8.30;99.90
16879;DHT22;8556;52.218;9.884;2022-11-06T06:38:12;8.20;99.90
16879;DHT22;8556;52.218;9.884;2022-11-06T06:40:38;8.40;99.90
16879;DHT22;8556;52.218;9.884;2022-11-06T06:43:07;8.20;99.90
16879;DHT22;8556;52.218;9.884;2022-11-06T06:45:34;8.20;99.90
16879;DHT22;8556;52.218;9.884;2022-11-06T06:48:01;8.20;99.90
16879;DHT22;8556;52.218;9.884;2022-11-06T06:50:28;8.00;99.90
16879;DHT22;8556;52.218;9.884;2022-11-06T06:52:55;8.00;99.90
16879;DHT22;8556;52.218;9.884;2022-11-06T06:55:22;8.00;99.90
16879;DHT22;8556;52.218;9.884;2022-11-06T06:57:55;8.00;99.90
16879;DHT22;8556;52.218;9.884;2022-11-06T07:00:23;8.00;99.90
16879;DHT22;8556;52.218;9.884;2022-11-06T07:02:50;8.10;99.90
16879;DHT22;8556;52.218;9.884;2022-11-06T07:05:16;8.10;99.90
16879;DHT22;8556;52.218;9.884;2022-11-06T07:07:43;8.10;99.90
16879;DHT22;8556;52.218;9.884;2022-11-06T07:10:10;8.00;99.90
16879;DHT22;8556;52.218;9.884;2022-11-06T07:12:37;8.00;99.90
16879;DHT22;8556;52.218;9.884;2022-11-06T07:15:05;8.10;99.90
16879;DHT22;8556;52.218;9.884;2022-11-06T07:17:33;8.10;99.90
16879;DHT22;8556;52.218;9.884;2022-11-06T07:20:00;8.10;99.90
16879;DHT22;8556;52.218;9.884;2022-11-06T07:22:28;8.10;99.90
16879;DHT22;8556;52.218;9.884;2022-11-06T07:24:55;8.10;99.90
16879;DHT22;8556;52.218;9.884;2022-11-06T07:27:27;8.20;99.90
16879;DHT22;8556;52.218;9.884;2022-11-06T07:29:54;8.20;99.90
16879;DHT22;8556;52.218;9.884;2022-11-06T07:32:21;8.20;99.90
16879;DHT22;8556;52.218;9.884;2022-11-06T07:34:49;8.20;99.90
16879;DHT22;8556;52.218;9.884;2022-11-06T07:37:16;8.20;99.90
16879;DHT22;8556;52.218;9.884;2022-11-06T07:39:43;8.20;99.90
16879;DHT22;8556;52.218;9.884;2022-11-06T07:42:10;8.30;99.90
16879;DHT22;8556;52.218;9.884;2022-11-06T07:44:37;8.20;99.90
16879;DHT22;8556;52.218;9.884;2022-11-06T07:47:03;8.20;99.90
16879;DHT22;8556;52.218;9.884;2022-11-06T07:49:30;8.20;99.90
16879;DHT22;8556;52.218;9.884;2022-11-06T07:51:58;8.20;99.90
16879;DHT22;8556;52.218;9.884;2022-11-06T07:54:25;8.30;99.90
16879;DHT22;8556;52.218;9.884;2022-11-06T07:56:52;8.30;99.90
16879;DHT22;8556;52.218;9.884;2022-11-06T07:59:19;8.30;99.90
16879;DHT22;8556;52.218;9.884;2022-11-06T08:01:46;8.30;99.90
16879;DHT22;8556;52.218;9.884;2022-11-06T08:04:12;8.30;99.90
16879;DHT22;8556;52.218;9.884;2022-11-06T08:06:39;8.30;99.90
16879;DHT22;8556;52.218;9.884;2022-11-06T08:09:08;8.50;99.90
16879;DHT22;8556;52.218;9.884;2022-11-06T08:11:34;8.70;99.90
16879;DHT22;8556;52.218;9.884;2022-11-06T08:14:01;9.00;99.90
16879;DHT22;8556;52.218;9.884;2022-11-06T08:16:28;9.40;25.90
16879;DHT22;8556;52.218;9.884;2022-11-06T08:18:55;9.50;1.00
16879;DHT22;8556;52.218;9.884;2022-11-06T08:21:22;9.50;1.00
16879;DHT22;8556;52.218;9.884;2022-11-06T08:23:49;9.10;1.00
16879;DHT22;8556;52.218;9.884;2022-11-06T08:26:17;9.00;1.00
16879;DHT22;8556;52.218;9.884;2022-11-06T08:28:44;9.20;1.00
16879;DHT22;8556;52.218;9.884;2022-11-06T08:31:11;9.30;1.00
16879;DHT22;8556;52.218;9.884;2022-11-06T08:33:38;9.30;1.00
16879;DHT22;8556;52.218;9.884;2022-11-06T08:36:06;9.30;1.00
16879;DHT22;8556;52.218;9.884;2022-11-06T08:38:34;9.20;1.00
16879;DHT22;8556;52.218;9.884;2022-11-06T08:41:05;9.40;1.00
16879;DHT22;8556;52.218;9.884;2022-11-06T08:43:34;9.30;1.00
16879;DHT22;8556;52.218;9.884;2022-11-06T08:46:01;9.40;1.00
16879;DHT22;8556;52.218;9.884;2022-11-06T08:48:28;9.70;1.00
16879;DHT22;8556;52.218;9.884;2022-11-06T08:50:55;10.30;1.00
16879;DHT22;8556;52.218;9.884;2022-11-06T08:53:22;10.20;1.00
16879;DHT22;8556;52.218;9.884;2022-11-06T08:55:48;10.40;99.90
16879;DHT22;8556;52.218;9.884;2022-11-06T08:58:15;10.50;1.00
16879;DHT22;8556;52.218;9.884;2022-11-06T09:00:43;10.60;99.90
16879;DHT22;8556;52.218;9.884;2022-11-06T09:03:12;10.50;99.90
16879;DHT22;8556;52.218;9.884;2022-11-06T09:05:39;10.50;36.20
16879;DHT22;8556;52.218;9.884;2022-11-06T09:08:07;10.60;1.00
16879;DHT22;8556;52.218;9.884;2022-11-06T09:10:35;10.60;99.90
16879;DHT22;8556;52.218;9.884;2022-11-06T09:13:02;10.60;1.00
16879;DHT22;8556;52.218;9.884;2022-11-06T09:15:29;10.50;1.00
16879;DHT22;8556;52.218;9.884;2022-11-06T09:17:57;10.60;1.00
16879;DHT22;8556;52.218;9.884;2022-11-06T09:20:25;10.60;1.00
16879;DHT22;8556;52.218;9.884;2022-11-06T09:22:52;10.60;99.90
16879;DHT22;8556;52.218;9.884;2022-11-06T09:25:19;10.50;1.00
16879;DHT22;8556;52.218;9.884;2022-11-06T09:27:48;10.70;99.90
16879;DHT22;8556;52.218;9.884;2022-11-06T09:30:16;10.90;99.90
16879;DHT22;8556;52.218;9.884;2022-11-06T09:32:47;11.20;1.00
16879;DHT22;8556;52.218;9.884;2022-11-06T09:35:16;11.40;1.00
16879;DHT22;8556;52.218;9.884;2022-11-06T09:37:43;11.30;99.90
16879;DHT22;8556;52.218;9.884;2022-11-06T09:40:18;11.30;99.90
16879;DHT22;8556;52.218;9.884;2022-11-06T09:42:53;11.30;1.00
16879;DHT22;8556;52.218;9.884;2022-11-06T09:45:26;11.20;1.00
16879;DHT22;8556;52.218;9.884;2022-11-06T09:48:01;11.30;1.00
16879;DHT22;8556;52.218;9.884;2022-11-06T09:50:34;11.40;1.00
16879;DHT22;8556;52.218;9.884;2022-11-06T09:53:05;11.70;99.90
16879;DHT22;8556;52.218;9.884;2022-11-06T09:55:39;11.80;31.30
16879;DHT22;8556;52.218;9.884;2022-11-06T09:58:12;11.70;1.00
16879;DHT22;8556;52.218;9.884;2022-11-06T10:00:40;11.90;1.00
16879;DHT22;8556;52.218;9.884;2022-11-06T10:03:13;12.20;99.90
16879;DHT22;8556;52.218;9.884;2022-11-06T10:05:44;12.20;1.00
16879;DHT22;8556;52.218;9.884;2022-11-06T10:08:15;12.70;99.90
16879;DHT22;8556;52.218;9.884;2022-11-06T10:10:58;12.70;1.00
16879;DHT22;8556;52.218;9.884;2022-11-06T10:13:47;13.00;1.00
16879;DHT22;8556;52.218;9.884;2022-11-06T10:16:25;13.20;1.00
16879;DHT22;8556;52.218;9.884;2022-11-06T10:19:06;12.80;1.00
16879;DHT22;8556;52.218;9.884;2022-11-06T10:21:44;13.10;1.00
16879;DHT22;8556;52.218;9.884;2022-11-06T10:24:20;12.60;1.00
16879;DHT22;8556;52.218;9.884;2022-11-06T10:26:51;12.60;1.00
16879;DHT22;8556;52.218;9.884;2022-11-06T10:29:34;13.20;1.00
16879;DHT22;8556;52.218;9.884;2022-11-06T10:32:21;13.30;1.00
16879;DHT22;8556;52.218;9.884;2022-11-06T10:34:56;13.30;99.90
16879;DHT22;8556;52.218;9.884;2022-11-06T10:37:28;13.30;84.40
16879;DHT22;8556;52.218;9.884;2022-11-06T10:39:57;12.90;99.90
16879;DHT22;8556;52.218;9.884;2022-11-06T10:42:28;13.30;99.90
16879;DHT22;8556;52.218;9.884;2022-11-06T10:44:57;13.40;99.90
16879;DHT22;8556;52.218;9.884;2022-11-06T10:47:29;13.50;99.90
16879;DHT22;8556;52.218;9.884;2022-11-06T10:49:59;13.30;1.00
16879;DHT22;8556;52.218;9.884;2022-11-06T10:52:39;13.70;1.00
16879;DHT22;8556;52.218;9.884;2022-11-06T10:55:38;13.60;1.00
16879;DHT22;8556;52.218;9.884;2022-11-06T10:58:11;13.40;1.00
16879;DHT22;8556;52.218;9.884;2022-11-06T11:00:39;13.60;1.00
16879;DHT22;8556;52.218;9.884;2022-11-06T11:03:15;13.50;1.00
16879;DHT22;8556;52.218;9.884;2022-11-06T11:05:44;13.80;1.00
16879;DHT22;8556;52.218;9.884;2022-11-06T11:08:37;13.70;1.00
16879;DHT22;8556;52.218;9.884;2022-11-06T11:11:14;13.80;1.00
16879;DHT22;8556;52.218;9.884;2022-11-06T11:13:42;14.00;1.00
16879;DHT22;8556;52.218;9.884;2022-11-06T11:16:13;14.10;1.00
16879;DHT22;8556;52.218;9.884;2022-11-06T11:18:41;14.70;1.00
16879;DHT22;8556;52.218;9.884;2022-11-06T11:21:15;15.00;99.90
16879;DHT22;8556;52.218;9.884;2022-11-06T11:24:04;14.50;1.00
16879;DHT22;8556;52.218;9.884;2022-11-06T11:26:33;14.70;99.90
16879;DHT22;8556;52.218;9.884;2022-11-06T11:29:11;14.70;99.90
16879;DHT22;8556;52.218;9.884;2022-11-06T11:31:39;14.40;99.90
16879;DHT22;8556;52.218;9.884;2022-11-06T11:34:14;14.90;99.90
16879;DHT22;8556;52.218;9.884;2022-11-06T11:36:57;14.30;99.90
16879;DHT22;8556;52.218;9.884;2022-11-06T11:39:28;14.70;99.90
16879;DHT22;8556;52.218;9.884;2022-11-06T11:42:21;14.70;99.90
16879;DHT22;8556;52.218;9.884;2022-11-06T11:45:12;15.00;99.90
16879;DHT22;8556;52.218;9.884;2022-11-06T11:47:40;14.90;99.90
16879;DHT22;8556;52.218;9.884;2022-11-06T11:50:28;14.70;99.90
16879;DHT22;8556;52.218;9.884;2022-11-06T11:53:02;14.40;99.90
16879;DHT22;8556;52.218;9.884;2022-11-06T11:55:36;15.00;99.90
16879;DHT22;8556;52.218;9.884;2022-11-06T11:58:05;16.10;99.90
16879;DHT22;8556;52.218;9.884;2022-11-06T12:00:49;16.50;99.90
16879;DHT22;8556;52.218;9.884;2022-11-06T12:03:17;17.10;99.90
16879;DHT22;8556;52.218;9.884;2022-11-06T12:05:44;16.40;99.90
16879;DHT22;8556;52.218;9.884;2022-11-06T12:08:20;16.70;99.90
16879;DHT22;8556;52.218;9.884;2022-11-06T12:10:50;16.30;99.90
16879;DHT22;8556;52.218;9.884;2022-11-06T12:13:19;16.90;99.90
16879;DHT22;8556;52.218;9.884;2022-11-06T12:15:50;16.60;99.90
16879;DHT22;8556;52.218;9.884;2022-11-06T12:18:19;17.40;99.90
16879;DHT22;8556;52.218;9.884;2022-11-06T12:20:51;17.30;99.90
16879;DHT22;8556;52.218;9.884;2022-11-06T12:23:27;17.00;99.90
16879;DHT22;8556;52.218;9.884;2022-11-06T12:26:00;16.10;99.90
16879;DHT22;8556;52.218;9.884;2022-11-06T12:28:30;15.80;99.90
16879;DHT22;8556;52.218;9.884;2022-11-06T12:31:03;15.20;99.90
16879;DHT22;8556;52.218;9.884;2022-11-06T12:33:31;14.00;99.90
16879;DHT22;8556;52.218;9.884;2022-11-06T12:36:02;14.00;99.90
16879;DHT22;8556;52.218;9.884;2022-11-06T12:38:51;13.90;99.90
16879;DHT22;8556;52.218;9.884;2022-11-06T12:41:24;15.10;99.90
16879;DHT22;8556;52.218;9.884;2022-11-06T12:43:52;15.70;99.90
16879;DHT22;8556;52.218;9.884;2022-11-06T12:46:32;16.50;99.90
16879;DHT22;8556;52.218;9.884;2022-11-06T12:52:15;17.30;99.90
16879;DHT22;8556;52.218;9.884;2022-11-06T12:54:55;17.90;99.90
16879;DHT22;8556;52.218;9.884;2022-11-06T12:57:33;18.10;96.30
16879;DHT22;8556;52.218;9.884;2022-11-06T13:00:06;16.30;36.50
16879;DHT22;8556;52.218;9.884;2022-11-06T13:05:29;16.20;38.90
16879;DHT22;8556;52.218;9.884;2022-11-06T13:08:16;16.00;35.60
16879;DHT22;8556;52.218;9.884;2022-11-06T13:11:09;15.60;38.20
16879;DHT22;8556;52.218;9.884;2022-11-06T13:13:52;14.70;97.90
16879;DHT22;8556;52.218;9.884;2022-11-06T13:16:29;13.90;99.90
16879;DHT22;8556;52.218;9.884;2022-11-06T13:19:03;13.80;99.90
16879;DHT22;8556;52.218;9.884;2022-11-06T13:21:52;13.40;99.90
16879;DHT22;8556;52.218;9.884;2022-11-06T13:24:27;13.30;99.90
16879;DHT22;8556;52.218;9.884;2022-11-06T13:26:59;13.40;99.90
16879;DHT22;8556;52.218;9.884;2022-11-06T13:29:36;13.30;99.90
16879;DHT22;8556;52.218;9.884;2022-11-06T13:32:06;13.20;1.00
16879;DHT22;8556;52.218;9.884;2022-11-06T13:34:37;13.60;99.90
16879;DHT22;8556;52.218;9.884;2022-11-06T13:37:14;13.90;99.90
16879;DHT22;8556;52.218;9.884;2022-11-06T13:39:45;13.80;99.90
16879;DHT22;8556;52.218;9.884;2022-11-06T13:42:21;13.80;99.90
16879;DHT22;8556;52.218;9.884;2022-11-06T13:44:50;13.30;1.00
16879;DHT22;8556;52.218;9.884;2022-11-06T13:47:20;13.20;1.00
16879;DHT22;8556;52.218;9.884;2022-11-06T13:49:55;13.20;1.00
16879;DHT22;8556;52.218;9.884;2022-11-06T13:52:32;13.30;99.90
16879;DHT22;8556;52.218;9.884;2022-11-06T13:55:06;13.10;99.90
16879;DHT22;8556;52.218;9.884;2022-11-06T13:58:02;13.00;99.90
16879;DHT22;8556;52.218;9.884;2022-11-06T14:00:45;13.00;99.90
16879;DHT22;8556;52.218;9.884;2022-11-06T14:06:30;12.70;99.90
16879;DHT22;8556;52.218;9.884;2022-11-06T14:09:00;12.80;99.90
16879;DHT22;8556;52.218;9.884;2022-11-06T14:11:33;12.70;99.90
16879;DHT22;8556;52.218;9.884;2022-11-06T14:14:02;12.60;99.90
16879;DHT22;8556;52.218;9.884;2022-11-06T14:16:32;12.60;99.90
16879;DHT22;8556;52.218;9.884;2022-11-06T14:19:05;12.50;1.00
16879;DHT22;8556;52.218;9.884;2022-11-06T14:21:45;12.40;1.00
16879;DHT22;8556;52.218;9.884;2022-11-06T14:24:16;12.40;1.00
16879;DHT22;8556;52.218;9.884;2022-11-06T14:26:44;12.50;1.00
16879;DHT22;8556;52.218;9.884;2022-11-06T14:29:52;12.50;1.00
16879;DHT22;8556;52.218;9.884;2022-11-06T14:32:46;12.50;1.00
16879;DHT22;8556;52.218;9.884;2022-11-06T14:38:36;12.40;1.00
16879;DHT22;8556;52.218;9.884;2022-11-06T14:44:41;12.40;1.00
16879;DHT22;8556;52.218;9.884;2022-11-06T14:47:22;12.20;1.00
16879;DHT22;8556;52.218;9.884;2022-11-06T14:49:53;12.10;57.30
16879;DHT22;8556;52.218;9.884;2022-11-06T14:52:22;12.20;1.00
16879;DHT22;8556;52.218;9.884;2022-11-06T14:54:53;12.00;99.90
16879;DHT22;8556;52.218;9.884;2022-11-06T14:57:38;12.10;1.00
16879;DHT22;8556;52.218;9.884;2022-11-06T15:00:12;12.20;1.00
16879;DHT22;8556;52.218;9.884;2022-11-06T15:02:40;12.20;1.00
16879;DHT22;8556;52.218;9.884;2022-11-06T15:05:15;12.20;1.00
16879;DHT22;8556;52.218;9.884;2022-11-06T15:07:55;12.20;1.00
16879;DHT22;8556;52.218;9.884;2022-11-06T15:10:48;12.10;1.00
16879;DHT22;8556;52.218;9.884;2022-11-06T15:13:27;12.00;1.00
16879;DHT22;8556;52.218;9.884;2022-11-06T15:16:00;12.20;1.00
16879;DHT22;8556;52.218;9.884;2022-11-06T15:18:29;12.10;1.00
16879;DHT22;8556;52.218;9.884;2022-11-06T15:21:03;12.00;1.00
16879;DHT22;8556;52.218;9.884;2022-11-06T15:23:40;11.70;1.00
16879;DHT22;8556;52.218;9.884;2022-11-06T15:26:16;11.80;1.00
16879;DHT22;8556;52.218;9.884;2022-11-06T15:28:49;11.60;1.00
16879;DHT22;8556;52.218;9.884;2022-11-06T15:31:19;11.60;1.00
16879;DHT22;8556;52.218;9.884;2022-11-06T15:33:53;11.60;1.00
16879;DHT22;8556;52.218;9.884;2022-11-06T15:36:25;11.60;1.00
16879;DHT22;8556;52.218;9.884;2022-11-06T15:38:53;11.60;1.00
16879;DHT22;8556;52.218;9.884;2022-11-06T15:41:23;11.50;1.00
16879;DHT22;8556;52.218;9.884;2022-11-06T15:43:52;11.40;1.00
16879;DHT22;8556;52.218;9.884;2022-11-06T15:46:23;11.50;1.00
16879;DHT22;8556;52.218;9.884;2022-11-06T15:49:07;11.40;1.00
16879;DHT22;8556;52.218;9.884;2022-11-06T15:51:38;11.40;1.00
16879;DHT22;8556;52.218;9.884;2022-11-06T15:54:05;11.40;1.00
16879;DHT22;8556;52.218;9.884;2022-11-06T15:56:34;11.30;1.00
16879;DHT22;8556;52.218;9.884;2022-11-06T15:59:06;11.30;1.00
16879;DHT22;8556;52.218;9.884;2022-11-06T16:01:34;11.20;1.00
16879;DHT22;8556;52.218;9.884;2022-11-06T16:04:05;11.20;1.00
16879;DHT22;8556;52.218;9.884;2022-11-06T16:06:32;11.00;1.00
16879;DHT22;8556;52.218;9.884;2022-11-06T16:09:02;10.80;1.00
16879;DHT22;8556;52.218;9.884;2022-11-06T16:11:30;10.70;99.90
16879;DHT22;8556;52.218;9.884;2022-11-06T16:13:58;10.90;1.00
16879;DHT22;8556;52.218;9.884;2022-11-06T16:16:36;11.00;1.00
16879;DHT22;8556;52.218;9.884;2022-11-06T16:19:05;10.80;99.90
16879;DHT22;8556;52.218;9.884;2022-11-06T16:21:34;10.60;99.90
16879;DHT22;8556;52.218;9.884;2022-11-06T16:24:08;10.40;1.00
16879;DHT22;8556;52.218;9.884;2022-11-06T16:26:37;10.40;1.00
16879;DHT22;8556;52.218;9.884;2022-11-06T16:29:10;10.30;1.00
16879;DHT22;8556;52.218;9.884;2022-11-06T16:31:38;10.50;1.00
16879;DHT22;8556;52.218;9.884;2022-11-06T16:34:18;10.40;1.00
16879;DHT22;8556;52.218;9.884;2022-11-06T16:36:51;10.40;1.00
16879;DHT22;8556;52.218;9.884;2022-11-06T16:39:42;10.50;1.00
16879;DHT22;8556;52.218;9.884;2022-11-06T16:42:25;10.50;1.00
16879;DHT22;8556;52.218;9.884;2022-11-06T16:45:13;10.50;37.30
16879;DHT22;8556;52.218;9.884;2022-11-06T16:47:41;10.30;99.90